Time;durP1;ratioP1;P1;durP2;ratioP2;P2;SDS_P1;SDS_P2;PMS_P1;PMS_P2;Temp;Humidity;BMP_temperature;BMP_pressure;BME280_temperature;BME280_humidity;BME280_pressure;Samples;Min_cycle;Max_cycle;Signal;HPM_P1;HPM_P2
2022/01/31 00:01:41;;;;;;;2.83;1.25;;;;;;;5.50;65.25;101136.75;5186605;28;20039;-79
2022/01/31 00:04:11;;;;;;;0.93;0.93;;;;;;;5.40;65.30;101128.09;5181829;28;20041;-79
2022/01/31 00:06:47;;;;;;;1.25;1.25;;;;;;;5.57;65.43;101106.41;5188703;28;20033;-79
2022/01/31 00:09:18;;;;;;;0.68;0.68;;;;;;;5.48;65.22;101092.53;5190319;28;20063;-79
2022/01/31 00:12:00;;;;;;;0.93;0.93;;;;;;;5.44;65.95;101072.59;5191312;28;20033;-79
2022/01/31 00:17:02;;;;;;;0.55;0.55;;;;;;;5.46;64.98;101038.75;5198782;28;20090;-79
2022/01/31 00:19:35;;;;;;;0.40;0.40;;;;;;;5.41;65.68;101050.91;5185868;28;20119;-78
2022/01/31 00:22:08;;;;;;;1.05;1.00;;;;;;;5.46;65.67;101055.22;5211491;28;20032;-79
2022/01/31 00:24:41;;;;;;;0.73;0.73;;;;;;;5.44;65.86;101061.28;5207094;28;20947;-79
2022/01/31 00:27:11;;;;;;;0.85;0.85;;;;;;;5.41;65.72;101059.56;5219441;28;20064;-79
2022/01/31 00:29:42;;;;;;;0.73;0.73;;;;;;;5.36;66.17;101053.50;5195933;28;20444;-78
2022/01/31 00:32:12;;;;;;;2.35;2.15;;;;;;;5.30;66.56;101058.69;5221330;28;20041;-79
2022/01/31 00:34:43;;;;;;;0.50;0.50;;;;;;;5.38;66.28;101040.47;5187095;28;20041;-79
2022/01/31 00:37:14;;;;;;;0.70;0.70;;;;;;;5.23;66.83;101025.72;5207402;28;20465;-79
2022/01/31 00:39:47;;;;;;;0.70;0.70;;;;;;;5.35;66.29;101010.13;5192137;28;20052;-79
2022/01/31 00:42:19;;;;;;;0.60;0.60;;;;;;;5.18;66.89;101013.59;5186550;28;20560;-79
2022/01/31 00:45:11;;;;;;;0.70;0.70;;;;;;;5.15;66.76;100992.78;5218015;28;20048;-79
2022/01/31 00:47:45;;;;;;;1.02;1.02;;;;;;;5.20;67.14;100998.00;5222942;28;20029;-79
2022/01/31 00:50:18;;;;;;;0.60;0.60;;;;;;;5.17;67.04;100996.25;5254019;28;20051;-80
2022/01/31 00:52:51;;;;;;;0.45;0.45;;;;;;;5.20;67.77;100987.59;5209726;28;20051;-78
2022/01/31 00:55:22;;;;;;;0.30;0.30;;;;;;;5.30;66.82;100971.09;5199930;28;20846;-79
2022/01/31 00:57:56;;;;;;;1.38;1.27;;;;;;;5.14;67.49;100951.19;5204203;28;20037;-79
2022/01/31 01:00:26;;;;;;;0.70;0.70;;;;;;;5.04;68.04;100938.19;5210595;28;20044;-79
2022/01/31 01:02:57;;;;;;;0.52;0.52;;;;;;;4.98;68.30;100927.78;5212249;28;20078;-79
2022/01/31 01:05:30;;;;;;;0.52;0.52;;;;;;;5.05;67.91;100918.22;5218972;28;20086;-82
2022/01/31 01:08:03;;;;;;;1.35;1.30;;;;;;;5.10;68.25;100907.81;5192785;28;20124;-79
2022/01/31 01:10:34;;;;;;;0.60;0.60;;;;;;;5.12;67.68;100893.06;5224286;28;20044;-78
2022/01/31 01:13:07;;;;;;;0.50;0.50;;;;;;;5.00;68.21;100879.22;5236494;28;20059;-78
2022/01/31 01:15:38;;;;;;;1.30;1.23;;;;;;;5.13;67.95;100864.44;5190919;28;20041;-79
2022/01/31 01:18:11;;;;;;;1.67;1.58;;;;;;;5.10;68.07;100855.78;5192488;28;20058;-79
2022/01/31 01:20:42;;;;;;;;;;;;;;;5.11;68.28;100837.59;5236713;28;20152;-78
2022/01/31 01:23:13;;;;;;;0.40;0.40;;;;;;;5.16;68.16;100811.59;5199750;28;19984;-79
2022/01/31 01:25:51;;;;;;;0.40;0.40;;;;;;;5.19;68.08;100803.75;5208075;28;20582;-78
2022/01/31 01:28:23;;;;;;;1.08;1.08;;;;;;;5.06;68.60;100807.28;5227981;28;20114;-79
2022/01/31 01:30:57;;;;;;;0.50;0.50;;;;;;;5.08;68.26;100792.53;5204342;28;20111;-79
2022/01/31 01:33:37;;;;;;;1.05;0.95;;;;;;;5.15;67.77;100773.44;5232533;28;20056;-79
2022/01/31 01:36:11;;;;;;;0.60;0.60;;;;;;;5.14;68.40;100763.91;5215356;28;20564;-78
2022/01/31 01:38:42;;;;;;;1.25;1.15;;;;;;;5.03;68.60;100750.94;5236728;28;20033;-78
2022/01/31 01:41:12;;;;;;;1.17;1.02;;;;;;;5.07;68.69;100747.44;5205060;28;20037;-79
2022/01/31 01:43:43;;;;;;;0.57;0.57;;;;;;;5.03;68.72;100738.78;5219873;28;20040;-79
2022/01/31 01:46:14;;;;;;;1.00;1.00;;;;;;;4.88;69.49;100712.84;5219719;28;20045;-79
2022/01/31 01:48:45;;;;;;;2.60;1.58;;;;;;;4.97;69.03;100707.63;5207252;28;20025;-79
2022/01/31 01:51:16;;;;;;;0.43;0.43;;;;;;;4.98;69.08;100698.94;5208156;28;20037;-79
2022/01/31 01:53:47;;;;;;;5.57;1.90;;;;;;;4.97;69.11;100679.00;5210527;28;20537;-78
2022/01/31 01:56:17;;;;;;;2.78;1.20;;;;;;;4.99;69.70;100674.69;5198291;28;20053;-78
2022/01/31 01:58:49;;;;;;;0.40;0.40;;;;;;;5.00;69.31;100671.16;5243197;28;20056;-78
2022/01/31 02:01:19;;;;;;;2.20;2.10;;;;;;;5.06;69.20;100651.22;5247667;28;20040;-79
2022/01/31 02:03:50;;;;;;;1.02;1.02;;;;;;;5.13;69.46;100652.91;5182260;28;20031;-79
2022/01/31 02:06:23;;;;;;;0.40;0.40;;;;;;;4.96;70.06;100637.41;5204315;28;20033;-79
2022/01/31 02:08:56;;;;;;;0.60;0.60;;;;;;;4.93;71.69;100625.28;5232603;28;20142;-79
2022/01/31 02:11:27;;;;;;;1.02;1.02;;;;;;;4.80;72.42;100613.22;5186169;28;20028;-79
2022/01/31 02:13:58;;;;;;;0.93;0.90;;;;;;;4.81;72.26;100608.00;5185983;28;20039;-79
2022/01/31 02:16:32;;;;;;;0.40;0.40;;;;;;;4.90;72.36;100594.13;5241588;28;20056;-79
2022/01/31 02:19:14;;;;;;;1.30;1.20;;;;;;;4.92;72.51;100589.75;5226221;28;20028;-79
2022/01/31 02:21:51;;;;;;;1.00;0.95;;;;;;;4.81;72.65;100575.97;5212275;28;20060;-79
2022/01/31 02:24:22;;;;;;;0.82;0.73;;;;;;;4.79;74.15;100583.78;5212010;28;20106;-79
2022/01/31 02:26:53;;;;;;;0.43;0.43;;;;;;;4.76;74.54;100564.72;5217419;28;20576;-79
2022/01/31 02:29:23;;;;;;;0.47;0.47;;;;;;;4.72;74.77;100559.53;5204835;28;20045;-78
2022/01/31 02:31:57;;;;;;;0.30;0.30;;;;;;;4.73;75.59;100552.59;5195498;28;20107;-77
2022/01/31 02:34:27;;;;;;;0.32;0.32;;;;;;;4.71;76.69;100531.81;5209032;28;20439;-78
2022/01/31 02:36:58;;;;;;;0.40;0.40;;;;;;;4.56;77.50;100537.09;5222237;28;20033;-78
2022/01/31 02:39:29;;;;;;;0.40;0.40;;;;;;;4.48;77.59;100513.75;5214664;28;20041;-78
2022/01/31 02:41:59;;;;;;;0.38;0.38;;;;;;;4.59;77.31;100521.47;5227004;28;20112;-79
2022/01/31 02:44:30;;;;;;;0.30;0.30;;;;;;;4.58;77.60;100517.19;5189003;28;20136;-78
2022/01/31 02:47:05;;;;;;;0.85;0.85;;;;;;;4.46;78.88;100506.84;5197406;28;20036;-78
2022/01/31 02:49:45;;;;;;;0.45;0.45;;;;;;;4.33;80.01;100504.31;5193261;28;20035;-79
2022/01/31 02:52:17;;;;;;;0.30;0.30;;;;;;;4.35;80.31;100489.56;5197786;28;20060;-79
2022/01/31 02:54:47;;;;;;;0.40;0.40;;;;;;;4.27;80.98;100475.75;5211348;28;20037;-78
2022/01/31 02:57:18;;;;;;;1.05;1.05;;;;;;;4.24;80.89;100478.38;5238143;28;20406;-78
2022/01/31 02:59:52;;;;;;;2.00;1.17;;;;;;;4.29;81.42;100479.22;5192936;28;20048;-78
2022/01/31 03:02:23;;;;;;;1.08;1.08;;;;;;;4.29;80.95;100468.81;5234211;28;20051;-78
2022/01/31 03:04:56;;;;;;;;;;;;;;;4.21;81.59;100458.50;5224831;28;20049;-78
2022/01/31 03:07:27;;;;;;;0.38;0.38;;;;;;;4.12;82.87;100450.75;5229816;28;19980;-78
2022/01/31 03:09:57;;;;;;;0.40;0.40;;;;;;;4.13;82.67;100451.59;5211898;28;20419;-78
2022/01/31 03:12:28;;;;;;;0.50;0.50;;;;;;;4.05;83.38;100433.47;5209715;28;20033;-78
2022/01/31 03:14:59;;;;;;;0.47;0.47;;;;;;;4.16;83.22;100439.47;5201636;28;20056;-79
2022/01/31 03:17:29;;;;;;;1.17;1.08;;;;;;;4.18;82.91;100429.06;5226593;28;20032;-78
2022/01/31 03:20:03;;;;;;;0.40;0.40;;;;;;;4.09;83.85;100406.59;5193495;28;20071;-78
2022/01/31 03:22:34;;;;;;;0.50;0.50;;;;;;;4.04;83.81;100396.25;5203988;28;20017;-78
2022/01/31 03:25:04;;;;;;;3.40;1.25;;;;;;;4.04;84.92;100398.84;5225204;28;20118;-78
2022/01/31 03:27:38;;;;;;;0.52;0.52;;;;;;;4.14;83.89;100394.44;5219144;28;20025;-78
2022/01/31 03:30:18;;;;;;;0.40;0.40;;;;;;;4.21;83.32;100390.09;5222962;28;20485;-79
2022/01/31 03:32:52;;;;;;;0.40;0.40;;;;;;;4.17;83.90;100396.19;5210330;28;20115;-78
2022/01/31 03:35:23;;;;;;;0.50;0.50;;;;;;;4.09;84.80;100384.09;5224714;28;20048;-78
2022/01/31 03:37:54;;;;;;;0.40;0.40;;;;;;;4.12;85.13;100387.53;5222567;28;20179;-78
2022/01/31 03:40:28;;;;;;;0.40;0.40;;;;;;;4.06;85.27;100386.72;5212550;28;20097;-78
2022/01/31 03:42:59;;;;;;;0.60;0.60;;;;;;;4.10;85.51;100391.00;5212558;28;20032;-78
2022/01/31 03:45:33;;;;;;;0.40;0.40;;;;;;;4.13;85.80;100379.78;5200634;28;20045;-79
2022/01/31 03:48:06;;;;;;;21.95;2.05;;;;;;;4.17;86.21;100365.88;5221834;28;20455;-79
2022/01/31 03:50:37;;;;;;;0.55;0.55;;;;;;;4.20;85.98;100367.59;5192597;28;20047;-78
2022/01/31 03:53:07;;;;;;;0.57;0.57;;;;;;;4.18;86.54;100359.81;5229695;28;20187;-79
2022/01/31 03:55:38;;;;;;;0.65;0.65;;;;;;;4.22;85.97;100348.53;5197192;28;20037;-79
2022/01/31 03:58:08;;;;;;;0.40;0.40;;;;;;;4.29;86.51;100338.97;5195004;28;20279;-79
2022/01/31 04:00:42;;;;;;;0.50;0.50;;;;;;;4.26;87.05;100323.38;5187555;28;20047;-78
2022/01/31 04:03:13;;;;;;;0.55;0.55;;;;;;;4.26;87.52;100318.19;5205510;28;20029;-79
2022/01/31 04:05:44;;;;;;;0.40;0.40;;;;;;;4.29;87.33;100317.34;5191959;28;21381;-78
2022/01/31 04:08:19;;;;;;;0.40;0.40;;;;;;;4.31;87.88;100326.84;5198215;28;20017;-78
2022/01/31 04:10:49;;;;;;;0.40;0.40;;;;;;;4.35;88.06;100332.88;5241360;28;20033;-79
2022/01/31 04:13:20;;;;;;;0.70;0.70;;;;;;;4.41;87.65;100336.28;5214204;28;20087;-78
2022/01/31 04:15:51;;;;;;;0.40;0.40;;;;;;;4.40;88.31;100323.28;5224672;28;20056;-79
2022/01/31 04:18:21;;;;;;;0.30;0.30;;;;;;;4.50;87.46;100316.31;5192339;28;20032;-78
2022/01/31 04:20:52;;;;;;;1.00;0.90;;;;;;;4.49;88.11;100311.97;5192408;28;20128;-78
2022/01/31 04:23:27;;;;;;;0.73;0.73;;;;;;;4.52;87.82;100325.81;5195501;28;20633;-79
2022/01/31 04:26:07;;;;;;;0.43;0.43;;;;;;;4.56;87.49;100321.44;5200761;28;20052;-78
2022/01/31 04:28:44;;;;;;;0.40;0.40;;;;;;;4.63;87.83;100322.25;5219143;28;20059;-79
2022/01/31 04:33:51;;;;;;;0.40;0.40;;;;;;;4.74;86.28;100320.41;5239592;28;20025;-79
2022/01/31 04:36:25;;;;;;;0.50;0.50;;;;;;;4.78;87.12;100313.44;5205927;28;20029;-79
2022/01/31 04:38:55;;;;;;;0.82;0.82;;;;;;;4.77;86.73;100311.69;5222499;28;20507;-78
2022/01/31 04:41:26;;;;;;;0.70;0.70;;;;;;;4.72;87.99;100312.63;5197138;28;20170;-79
2022/01/31 04:44:03;;;;;;;0.40;0.40;;;;;;;4.82;86.98;100312.53;5229200;28;20035;-78
2022/01/31 04:46:33;;;;;;;0.40;0.40;;;;;;;4.83;87.79;100319.47;5227835;28;20025;-79
2022/01/31 04:49:04;;;;;;;0.88;0.88;;;;;;;4.82;87.36;100318.59;5224126;28;20051;-79
2022/01/31 04:51:34;;;;;;;0.30;0.30;;;;;;;4.94;86.67;100317.59;5223264;28;20147;-78
2022/01/31 04:54:05;;;;;;;0.47;0.47;;;;;;;4.91;85.81;100321.97;5199971;28;20132;-79
2022/01/31 04:56:38;;;;;;;0.50;0.50;;;;;;;4.95;86.49;100316.72;5220334;28;20029;-79
2022/01/31 04:59:10;;;;;;;0.40;0.40;;;;;;;5.00;86.17;100317.53;5204386;28;20127;-79
2022/01/31 05:01:43;;;;;;;0.35;0.35;;;;;;;4.99;86.37;100300.22;5192351;28;20021;-79
2022/01/31 05:04:13;;;;;;;0.40;0.40;;;;;;;4.96;87.17;100297.66;5207989;28;20041;-79
2022/01/31 05:06:46;;;;;;;0.82;0.82;;;;;;;5.02;86.34;100289.78;5206451;28;20538;-78
2022/01/31 05:09:17;;;;;;;0.40;0.40;;;;;;;5.02;86.92;100294.97;5211787;28;20053;-79
2022/01/31 05:11:50;;;;;;;0.60;0.60;;;;;;;5.08;86.88;100298.41;5224743;28;20514;-79
2022/01/31 05:14:20;;;;;;;0.40;0.40;;;;;;;5.02;87.71;100294.13;5187412;28;20064;-79
2022/01/31 05:16:51;;;;;;;0.68;0.68;;;;;;;5.02;87.59;100292.38;5204032;28;20033;-79
2022/01/31 05:19:22;;;;;;;0.50;0.47;;;;;;;5.06;87.44;100294.97;5221558;28;20036;-79
2022/01/31 05:21:52;;;;;;;0.40;0.40;;;;;;;5.12;86.43;100294.88;5206483;28;20116;-79
2022/01/31 05:24:23;;;;;;;0.30;0.30;;;;;;;5.12;86.13;100285.34;5224053;28;20036;-79
2022/01/31 05:26:53;;;;;;;0.90;0.90;;;;;;;5.10;86.29;100276.69;5198189;28;20040;-79
2022/01/31 05:29:24;;;;;;;0.40;0.40;;;;;;;5.13;86.18;100279.25;5200115;28;20048;-80
2022/01/31 05:31:54;;;;;;;0.50;0.50;;;;;;;5.20;85.21;100277.44;5204681;28;20047;-80
2022/01/31 05:34:25;;;;;;;0.40;0.40;;;;;;;5.10;86.18;100271.50;5199664;28;20519;-79
2022/01/31 05:36:59;;;;;;;0.63;0.63;;;;;;;5.15;85.76;100263.66;5219255;28;20060;-83
2022/01/31 05:39:29;;;;;;;0.60;0.60;;;;;;;5.14;85.71;100267.13;5200136;28;20047;-81
2022/01/31 05:42:10;;;;;;;1.85;1.60;;;;;;;5.16;85.05;100262.78;5205567;28;20679;-82
2022/01/31 05:44:47;;;;;;;2.28;1.25;;;;;;;5.16;85.40;100265.38;5221537;28;20186;-81
2022/01/31 05:47:17;;;;;;;0.70;0.70;;;;;;;5.14;85.74;100272.31;5201510;28;20029;-81
2022/01/31 05:50:09;;;;;;;0.30;0.30;;;;;;;5.17;85.21;100259.25;5228753;28;20038;-80
2022/01/31 05:52:43;;;;;;;0.60;0.60;;;;;;;5.25;84.73;100264.38;5198502;28;20032;-81
2022/01/31 05:55:14;;;;;;;;;;;;;;;5.24;84.08;100263.53;5241783;28;20878;-81
2022/01/31 05:57:44;;;;;;;0.60;0.60;;;;;;;5.17;84.45;100259.25;5233723;28;19968;-81
2022/01/31 06:00:16;;;;;;;0.60;0.60;;;;;;;5.16;83.75;100249.75;5221534;28;20052;-81
2022/01/31 06:02:59;;;;;;;0.40;0.40;;;;;;;5.24;83.69;100247.94;5184894;28;20051;-81
2022/01/31 06:05:31;;;;;;;0.55;0.55;;;;;;;5.25;83.06;100243.56;5238668;28;20098;-81
2022/01/31 06:08:01;;;;;;;0.40;0.40;;;;;;;5.22;82.88;100244.47;5224595;28;20040;-81
2022/01/31 06:10:33;;;;;;;0.70;0.70;;;;;;;5.30;82.90;100246.97;5231269;28;20037;-81
2022/01/31 06:13:04;;;;;;;0.40;0.40;;;;;;;5.33;82.75;100242.56;5185204;28;20029;-81
2022/01/31 06:15:40;;;;;;;1.00;1.00;;;;;;;5.36;82.14;100237.34;5193645;28;20032;-81
2022/01/31 06:18:13;;;;;;;0.30;0.30;;;;;;;5.36;81.05;100232.16;5229049;28;20031;-81
2022/01/31 06:20:46;;;;;;;0.30;0.30;;;;;;;5.30;80.82;100224.44;5248823;28;20064;-82
2022/01/31 06:23:16;;;;;;;3.88;1.25;;;;;;;5.25;81.84;100228.81;5247225;28;20092;-80
2022/01/31 06:25:48;;;;;;;0.30;0.30;;;;;;;5.24;81.13;100221.03;5214109;28;20045;-81
2022/01/31 06:28:27;;;;;;;0.40;0.40;;;;;;;5.18;80.81;100222.84;5205753;28;20029;-81
2022/01/31 06:30:58;;;;;;;0.30;0.30;;;;;;;5.22;81.20;100215.00;5241486;28;20100;-81
2022/01/31 06:33:39;;;;;;;0.73;0.73;;;;;;;5.21;80.93;100206.34;5242811;28;20033;-81
2022/01/31 06:36:09;;;;;;;0.40;0.40;;;;;;;5.19;80.38;100216.78;5190616;28;20584;-81
2022/01/31 06:38:40;;;;;;;1.67;1.58;;;;;;;5.20;80.16;100210.69;5239507;28;20032;-81
2022/01/31 06:41:13;;;;;;;0.73;0.73;;;;;;;5.24;81.05;100208.03;5191668;28;20037;-81
2022/01/31 06:43:44;;;;;;;0.33;0.33;;;;;;;5.15;81.69;100206.44;5209008;28;20029;-81
2022/01/31 06:46:17;;;;;;;2.05;1.15;;;;;;;5.19;80.77;100203.78;5200389;28;20344;-81
2022/01/31 06:48:50;;;;;;;0.70;0.70;;;;;;;5.15;81.85;100201.22;5208787;28;20083;-80
2022/01/31 06:51:21;;;;;;;0.55;0.55;;;;;;;5.16;81.76;100214.19;5225026;28;20676;-81
2022/01/31 06:53:59;;;;;;;0.57;0.57;;;;;;;5.08;82.67;100210.00;5181542;28;20033;-81
2022/01/31 06:56:34;;;;;;;0.30;0.30;;;;;;;5.12;82.25;100203.84;5183889;28;20053;-80
2022/01/31 06:59:05;;;;;;;0.40;0.40;;;;;;;4.99;83.54;100200.56;5219819;28;20078;-80
2022/01/31 07:01:35;;;;;;;0.40;0.40;;;;;;;5.14;82.71;100194.31;5222974;28;20034;-81
2022/01/31 07:04:08;;;;;;;0.60;0.60;;;;;;;5.04;82.47;100214.38;5208710;28;20044;-81
2022/01/31 07:06:39;;;;;;;0.40;0.40;;;;;;;5.15;82.13;100227.22;5206651;28;20059;-81
2022/01/31 07:09:12;;;;;;;0.40;0.40;;;;;;;5.06;83.22;100238.59;5214600;28;20050;-81
2022/01/31 07:11:43;;;;;;;0.40;0.40;;;;;;;5.02;83.80;100245.56;5214250;28;20033;-80
2022/01/31 07:14:30;;;;;;;0.30;0.30;;;;;;;4.97;84.04;100262.97;5187926;28;20044;-81
2022/01/31 07:17:04;;;;;;;0.70;0.70;;;;;;;4.91;84.24;100254.38;5208511;28;20067;-81
2022/01/31 07:19:38;;;;;;;0.77;0.77;;;;;;;4.85;83.59;100239.69;5209223;28;20041;-81
2022/01/31 07:22:12;;;;;;;;;;;;;;;4.88;83.48;100229.28;5210708;28;20029;-80
2022/01/31 07:24:46;;;;;;;0.50;0.50;;;;;;;4.88;83.23;100229.28;5222500;28;19924;-80
2022/01/31 07:27:35;;;;;;;0.40;0.40;;;;;;;4.86;83.59;100236.22;5214525;28;20212;-80
2022/01/31 07:30:06;;;;;;;0.40;0.40;;;;;;;4.84;83.17;100231.06;5176272;28;20060;-81
2022/01/31 07:32:41;;;;;;;0.40;0.40;;;;;;;4.84;83.85;100206.78;5212357;28;20036;-81
2022/01/31 07:35:14;;;;;;;0.30;0.30;;;;;;;4.89;83.52;100225.81;5218314;28;20045;-81
2022/01/31 07:37:45;;;;;;;0.95;0.95;;;;;;;4.87;83.13;100223.22;5209224;28;20106;-81
2022/01/31 07:40:16;;;;;;;0.50;0.50;;;;;;;4.95;82.92;100225.72;5239230;28;20072;-81
2022/01/31 07:42:46;;;;;;;0.68;0.68;;;;;;;4.92;83.12;100210.16;5210966;28;20119;-81
2022/01/31 07:45:17;;;;;;;0.50;0.50;;;;;;;4.91;83.08;100212.78;5217753;28;20045;-81
2022/01/31 07:47:50;;;;;;;0.30;0.30;;;;;;;4.86;83.72;100218.03;5243720;28;20490;-81
2022/01/31 07:50:24;;;;;;;0.60;0.55;;;;;;;4.86;82.92;100215.44;5219689;28;20051;-81
2022/01/31 07:52:55;;;;;;;0.50;0.50;;;;;;;4.88;83.25;100216.28;5221067;28;20054;-81
2022/01/31 07:55:35;;;;;;;7.47;1.05;;;;;;;4.88;83.28;100213.69;5186167;28;20150;-80
2022/01/31 07:58:08;;;;;;;0.30;0.30;;;;;;;4.88;83.60;100218.88;5241819;28;20031;-80
2022/01/31 08:00:40;;;;;;;1.65;1.40;;;;;;;4.88;83.38;100208.47;5223334;28;20049;-81
2022/01/31 08:03:15;;;;;;;0.73;0.73;;;;;;;4.84;83.42;100209.38;5212132;28;20079;-80
2022/01/31 08:05:45;;;;;;;0.60;0.60;;;;;;;4.87;83.55;100211.97;5192431;28;20654;-80
2022/01/31 08:08:36;;;;;;;0.30;0.30;;;;;;;4.87;82.46;100201.56;5206684;28;20044;-81
2022/01/31 08:11:34;;;;;;;1.88;1.40;;;;;;;4.85;83.00;100204.19;5222152;28;20037;-81
2022/01/31 08:14:11;;;;;;;1.55;1.40;;;;;;;4.85;82.43;100209.38;5220960;28;20025;-81
2022/01/31 08:16:42;;;;;;;0.30;0.30;;;;;;;4.87;83.26;100211.97;5224086;28;20025;-80
2022/01/31 08:19:13;;;;;;;0.38;0.38;;;;;;;4.93;82.48;100217.06;5208834;28;20272;-81
2022/01/31 08:21:46;;;;;;;0.30;0.30;;;;;;;4.92;82.24;100204.94;5236655;28;20060;-81
2022/01/31 08:24:20;;;;;;;0.30;0.30;;;;;;;4.93;82.24;100217.06;5211871;28;20040;-81
2022/01/31 08:26:51;;;;;;;1.55;1.40;;;;;;;4.82;82.69;100224.16;5224907;28;20044;-80
2022/01/31 08:29:44;;;;;;;;;;;;;;;;;;;;;
2022/01/31 08:32:22;;;;;;;0.40;0.40;;;;;;;4.95;81.56;100210.13;5245138;28;20168;-80
2022/01/31 08:37:53;;;;;;;0.73;0.73;;;;;;;4.93;82.55;100218.81;5258008;28;20120;-80
2022/01/31 08:40:24;;;;;;;0.73;0.73;;;;;;;4.89;83.04;100226.66;5221291;28;20192;-80
2022/01/31 08:43:14;;;;;;;0.32;0.32;;;;;;;4.95;83.18;100223.13;5193875;28;20044;-80
2022/01/31 08:45:49;;;;;;;0.50;0.50;;;;;;;4.89;83.00;100223.22;5207020;28;20408;-80
2022/01/31 08:48:26;;;;;;;0.30;0.30;;;;;;;4.97;83.23;100230.91;5205670;28;20116;-80
2022/01/31 08:50:57;;;;;;;0.35;0.35;;;;;;;4.89;83.55;100238.81;5215834;28;20519;-81
2022/01/31 08:53:28;;;;;;;0.60;0.57;;;;;;;4.88;83.93;100227.53;5184799;28;20049;-81
2022/01/31 08:56:02;;;;;;;2.38;1.33;;;;;;;4.87;83.71;100222.34;5213665;28;20037;-81
2022/01/31 08:58:52;;;;;;;0.40;0.40;;;;;;;4.86;83.78;100228.44;5211526;28;20114;-81
2022/01/31 09:01:25;;;;;;;1.10;1.02;;;;;;;4.84;83.97;100222.38;5197133;28;20053;-81
2022/01/31 09:04:01;;;;;;;0.43;0.43;;;;;;;4.77;84.43;100225.94;5207191;28;20399;-80
2022/01/31 09:06:34;;;;;;;2.28;1.42;;;;;;;4.80;83.74;100218.09;5189804;28;20061;-80
2022/01/31 09:09:08;;;;;;;0.68;0.68;;;;;;;4.77;83.89;100223.34;5222604;28;20713;-81
2022/01/31 09:11:40;;;;;;;0.45;0.45;;;;;;;4.77;83.67;100216.41;5215156;28;20285;-80
2022/01/31 09:14:10;;;;;;;0.40;0.40;;;;;;;4.73;83.85;100202.59;5223655;28;20039;-79
2022/01/31 09:16:41;;;;;;;0.47;0.47;;;;;;;4.86;83.50;100210.22;5206357;28;20530;-78
2022/01/31 09:19:20;;;;;;;0.88;0.88;;;;;;;4.71;83.38;100193.94;5193104;28;20041;-76
2022/01/31 09:21:59;;;;;;;0.50;0.50;;;;;;;4.67;84.12;100202.63;5190783;28;20445;-79
2022/01/31 09:24:30;;;;;;;1.05;1.05;;;;;;;4.77;83.84;100210.34;5203808;28;20056;-79
2022/01/31 09:27:03;;;;;;;0.50;0.50;;;;;;;4.83;83.49;100213.72;5205038;28;20094;-81
2022/01/31 09:29:34;;;;;;;0.40;0.40;;;;;;;4.69;83.88;100219.09;5216359;28;20032;-79
2022/01/31 09:32:10;;;;;;;0.40;0.40;;;;;;;4.77;84.14;100215.53;5204393;28;20021;-79
2022/01/31 09:34:42;;;;;;;0.60;0.60;;;;;;;4.76;84.39;100203.41;5203576;28;20041;-80
2022/01/31 09:37:13;;;;;;;0.40;0.40;;;;;;;4.73;84.29;100200.00;5203158;28;20376;-79
2022/01/31 09:39:48;;;;;;;7.03;1.85;;;;;;;4.80;84.21;100199.91;5235427;28;20044;-79
2022/01/31 09:42:29;;;;;;;5.95;2.17;;;;;;;4.61;83.87;100194.06;5227111;28;20094;-79
2022/01/31 09:48:32;;;;;;;0.38;0.38;;;;;;;4.70;84.06;100193.97;5221646;28;20716;-81
2022/01/31 09:50:28;;;;;;;1.40;1.40;;;;;;;4.77;84.16;100195.63;5201358;28;20535;-80
2022/01/31 09:52:58;;;;;;;0.38;0.38;;;;;;;4.72;84.50;100193.06;5204934;28;20043;-79
2022/01/31 09:55:30;;;;;;;0.30;0.30;;;;;;;4.80;83.96;100197.31;5216717;28;20049;-80
2022/01/31 09:58:29;;;;;;;0.30;0.30;;;;;;;4.73;84.76;100201.72;5220871;28;20039;-80
2022/01/31 10:01:05;;;;;;;5.18;2.05;;;;;;;4.72;84.37;100182.66;5219829;28;20134;-80
2022/01/31 10:03:45;;;;;;;2.30;1.58;;;;;;;4.73;85.09;100202.59;5190006;28;20103;-81
2022/01/31 10:06:48;;;;;;;0.40;0.40;;;;;;;4.69;84.63;100200.88;5223336;28;20041;-81
2022/01/31 10:09:33;;;;;;;1.88;1.13;;;;;;;4.78;85.08;100207.75;5228502;28;20710;-81
2022/01/31 10:12:23;;;;;;;0.45;0.45;;;;;;;4.72;84.98;100216.47;5218191;28;20044;-82
2022/01/31 10:17:46;;;;;;;0.40;0.40;;;;;;;4.68;84.56;100224.31;5247561;28;20036;-82
2022/01/31 10:20:31;;;;;;;0.30;0.30;;;;;;;4.68;85.06;100222.56;5204820;28;20041;-83
2022/01/31 10:23:20;;;;;;;0.50;0.50;;;;;;;4.78;84.66;100233.72;5195302;28;20029;-82
2022/01/31 10:25:50;;;;;;;2.25;2.05;;;;;;;4.73;85.15;100236.38;5190430;28;20163;-82
2022/01/31 10:28:25;;;;;;;0.40;0.40;;;;;;;4.80;84.16;100231.94;5218541;28;20033;-83
2022/01/31 10:30:57;;;;;;;;;;;;;;;4.83;84.84;100242.31;5206917;28;20044;-82
2022/01/31 10:34:12;;;;;;;0.30;0.30;;;;;;;4.79;84.97;100253.66;5214969;28;19951;-80
2022/01/31 10:36:42;;;;;;;1.45;1.40;;;;;;;4.84;84.75;100259.66;5227786;28;20677;-82
2022/01/31 10:43:12;;;;;;;0.88;0.80;;;;;;;4.76;84.65;100255.41;5227182;28;20042;-80
2022/01/31 10:51:57;;;;;;;0.40;0.40;;;;;;;4.86;84.73;100273.50;5223877;28;20040;-80
2022/01/31 10:54:24;;;;;;;0.63;0.63;;;;;;;4.86;84.67;100304.69;5207026;28;20037;-78
2022/01/31 10:56:57;;;;;;;1.55;1.08;;;;;;;4.80;84.99;100288.28;5219413;28;20063;-79
2022/01/31 10:59:38;;;;;;;1.60;1.60;;;;;;;4.84;84.94;100287.38;5210634;28;20029;-82
2022/01/31 11:02:21;;;;;;;0.40;0.40;;;;;;;4.85;84.63;100295.16;5221206;28;20876;-79
2022/01/31 11:04:54;;;;;;;2.05;1.95;;;;;;;4.83;84.35;100298.66;5190298;28;20064;-78
2022/01/31 11:07:28;;;;;;;0.40;0.40;;;;;;;4.65;84.35;100292.78;5203345;28;20026;-79
2022/01/31 11:10:00;;;;;;;2.35;1.25;;;;;;;4.57;84.20;100302.38;5222842;28;20064;-79
2022/01/31 11:12:34;;;;;;;0.50;0.50;;;;;;;4.79;84.28;100295.25;5200696;28;20690;-80
2022/01/31 11:15:09;;;;;;;;;;;;;;;4.82;84.28;100296.94;5185152;28;20045;-79
2022/01/31 11:17:40;;;;;;;0.40;0.40;;;;;;;4.74;84.47;100302.19;5221914;28;19928;-80
2022/01/31 11:20:11;;;;;;;0.60;0.60;;;;;;;4.64;84.45;100311.84;5237027;28;20124;-79
2022/01/31 11:22:42;;;;;;;0.80;0.80;;;;;;;4.84;84.56;100311.63;5210875;28;20591;-79
2022/01/31 11:25:16;;;;;;;0.50;0.50;;;;;;;4.85;84.84;100307.28;5204368;28;20063;-78
2022/01/31 11:27:47;;;;;;;1.33;1.23;;;;;;;4.90;84.14;100323.72;5219662;28;20032;-78
2022/01/31 11:30:18;;;;;;;0.50;0.50;;;;;;;4.72;84.87;100307.44;5203585;28;20586;-79
2022/01/31 11:32:49;;;;;;;0.57;0.57;;;;;;;4.79;85.17;100323.84;5236248;28;20027;-80
2022/01/31 11:35:23;;;;;;;0.80;0.80;;;;;;;4.79;84.21;100330.75;5190504;28;20047;-79
2022/01/31 11:37:54;;;;;;;0.50;0.50;;;;;;;4.68;85.18;100331.72;5224767;28;20094;-79
2022/01/31 11:40:30;;;;;;;0.60;0.60;;;;;;;4.60;85.21;100328.31;5206421;28;20044;-80
2022/01/31 11:43:07;;;;;;;3.92;1.77;;;;;;;4.61;84.84;100350.81;5223079;28;20062;-78
2022/01/31 11:45:41;;;;;;;0.50;0.50;;;;;;;4.70;84.40;100360.31;5169173;28;20049;-83
2022/01/31 11:48:26;;;;;;;0.40;0.40;;;;;;;4.77;84.04;100353.28;5202500;28;20523;-81
2022/01/31 11:51:01;;;;;;;0.90;0.85;;;;;;;4.83;85.07;100345.47;5205942;28;20049;-80
2022/01/31 11:53:35;;;;;;;1.50;1.50;;;;;;;4.77;84.70;100346.38;5219898;28;20055;-80
2022/01/31 11:56:21;;;;;;;0.40;0.40;;;;;;;4.83;84.46;100363.66;5213191;28;20036;-80
2022/01/31 11:58:54;;;;;;;1.05;1.05;;;;;;;4.81;84.61;100370.59;5204655;28;20025;-81
2022/01/31 12:01:28;;;;;;;0.68;0.68;;;;;;;4.89;83.95;100356.63;5242669;28;20033;-81
2022/01/31 12:04:00;;;;;;;4.03;2.50;;;;;;;4.80;84.06;100340.28;5207250;28;20032;-79
2022/01/31 12:06:33;;;;;;;1.15;1.15;;;;;;;4.78;84.11;100368.91;5187633;28;20104;-79
2022/01/31 12:09:13;;;;;;;0.57;0.57;;;;;;;4.83;84.98;100371.47;5200857;28;20056;-79
2022/01/31 12:12:10;;;;;;;0.40;0.40;;;;;;;4.76;85.71;100356.75;5238541;28;20040;-79
2022/01/31 12:14:51;;;;;;;0.40;0.40;;;;;;;4.78;85.20;100362.81;5195562;28;20033;-79
2022/01/31 12:18:16;;;;;;;0.38;0.38;;;;;;;4.79;85.51;100372.34;5187404;28;20025;-79
2022/01/31 12:23:54;;;;;;;0.50;0.50;;;;;;;4.83;84.67;100384.44;5220698;28;20040;-79
2022/01/31 12:27:15;;;;;;;3.13;1.70;;;;;;;4.88;84.47;100398.25;5217236;28;20045;-79
2022/01/31 12:29:52;;;;;;;0.35;0.35;;;;;;;4.84;84.67;100397.44;5100967;28;20047;-78
2022/01/31 12:32:40;;;;;;;0.73;0.73;;;;;;;4.80;84.69;100408.72;5114395;28;20456;-80
2022/01/31 12:35:14;;;;;;;0.80;0.77;;;;;;;4.85;84.51;100411.28;5183861;28;20044;-80
2022/01/31 12:37:50;;;;;;;1.50;1.42;;;;;;;4.75;84.26;100404.44;5218287;28;20020;-80